Time;durP1;ratioP1;P1;durP2;ratioP2;P2;SDS_P1;SDS_P2;PMS_P1;PMS_P2;Temp;Humidity;BMP_temperature;BMP_pressure;BME280_temperature;BME280_humidity;BME280_pressure;Samples;Min_cycle;Max_cycle;Signal;HPM_P1;HPM_P2
2022/01/28 00:00:12;;;;;;;0.52;0.52;;;;;;;5.22;67.13;99014.78;5026857;28;20184;-69
2022/01/28 00:05:29;;;;;;;0.43;0.43;;;;;;;5.02;67.55;99017.00;5028003;28;20054;-77
2022/01/28 00:07:57;;;;;;;0.10;0.10;;;;;;;4.98;67.51;99010.31;5026759;28;20056;-73
2022/01/28 00:10:26;;;;;;;0.10;0.10;;;;;;;4.95;67.63;99020.97;5027874;28;20046;-71
2022/01/28 00:13:18;;;;;;;0.10;0.10;;;;;;;4.92;67.73;99006.34;5027265;28;20060;-69
2022/01/28 00:16:04;;;;;;;0.10;0.10;;;;;;;4.95;67.75;98997.44;5026754;28;20144;-72
2022/01/28 00:18:51;;;;;;;;;;;;;;;5.15;67.30;99010.00;5026891;28;20053;-70
2022/01/28 00:38:24;;;;;;;4.00;2.97;;;;;;;5.24;67.63;98960.53;5026222;28;20092;-69
2022/01/28 00:40:51;;;;;;;4.32;2.47;;;;;;;5.10;67.78;98949.28;5027280;28;20053;-67
2022/01/28 00:43:18;;;;;;;7.30;3.17;;;;;;;4.77;67.82;98978.63;5026837;28;20060;-68
2022/01/28 00:45:45;;;;;;;0.10;0.10;;;;;;;4.77;67.97;98974.25;5026392;28;20049;-70
2022/01/28 00:48:14;;;;;;;0.10;0.10;;;;;;;4.75;67.91;98989.22;5008791;28;20057;-69
2022/01/28 00:50:42;;;;;;;0.10;0.10;;;;;;;4.69;67.64;98994.84;5026396;28;20660;-71
2022/01/28 00:53:09;;;;;;;0.10;0.10;;;;;;;4.60;67.81;98980.63;5026524;28;20053;-72
2022/01/28 00:55:36;;;;;;;0.10;0.10;;;;;;;4.53;67.93;98962.84;5026868;28;20055;-70
2022/01/28 00:58:03;;;;;;;0.10;0.10;;;;;;;4.49;67.91;98967.44;5026283;28;20092;-73
2022/01/28 01:00:34;;;;;;;0.10;0.10;;;;;;;4.45;68.10;98970.34;5026740;28;20048;-71
2022/01/28 01:03:01;;;;;;;0.10;0.10;;;;;;;4.44;68.11;98960.84;5024887;28;20053;-70
2022/01/28 01:05:34;;;;;;;0.10;0.10;;;;;;;4.43;68.20;98957.41;4965765;28;1784209;-72
2022/01/28 01:08:02;;;;;;;0.10;0.10;;;;;;;4.43;68.30;98960.03;5028583;28;20049;-72
2022/01/28 01:10:29;;;;;;;0.10;0.10;;;;;;;4.43;68.59;98956.56;5027560;28;20111;-69
2022/01/28 01:12:57;;;;;;;0.10;0.10;;;;;;;4.45;68.40;98946.81;5028098;28;20132;-72
2022/01/28 01:15:29;;;;;;;0.10;0.10;;;;;;;4.47;68.29;98932.72;5010534;28;20049;-72
2022/01/28 01:18:01;;;;;;;0.00;0.00;;;;;;;4.49;68.43;98940.47;5028715;28;20132;-73
2022/01/28 01:20:55;;;;;;;0.10;0.10;;;;;;;4.54;68.43;98928.75;5027506;28;20820;-72
2022/01/28 01:23:25;;;;;;;0.10;0.10;;;;;;;4.58;68.42;98927.59;5010298;28;20172;-73
2022/01/28 01:26:04;;;;;;;0.10;0.10;;;;;;;4.61;68.38;98929.16;5028267;28;20049;-72
2022/01/28 01:28:37;;;;;;;0.10;0.10;;;;;;;4.67;68.62;98923.50;5011370;28;20099;-73
2022/01/28 01:31:12;;;;;;;0.10;0.10;;;;;;;4.74;68.82;98929.97;5028620;28;20076;-72
2022/01/28 01:33:43;;;;;;;0.10;0.10;;;;;;;4.79;68.66;98927.88;5026992;28;20049;-70
2022/01/28 01:36:14;;;;;;;0.10;0.10;;;;;;;4.88;68.76;98925.53;5029200;28;20100;-70
2022/01/28 01:38:42;;;;;;;0.10;0.10;;;;;;;4.95;68.76;98922.41;5029904;28;20063;-70
2022/01/28 01:41:13;;;;;;;0.10;0.10;;;;;;;5.03;68.63;98921.88;5029798;28;20129;-72
2022/01/28 01:43:54;;;;;;;0.10;0.10;;;;;;;5.10;68.46;98912.63;5029453;28;20051;-70
2022/01/28 01:46:31;;;;;;;0.00;0.00;;;;;;;5.17;68.15;98915.66;5028552;28;20133;-75
2022/01/28 01:52:03;;;;;;;0.10;0.10;;;;;;;5.31;67.84;98909.41;5027385;28;20274;-69
2022/01/28 01:54:31;;;;;;;0.10;0.10;;;;;;;5.33;67.39;98916.22;5027877;28;20046;-68
2022/01/28 01:56:57;;;;;;;0.10;0.10;;;;;;;5.38;67.61;98915.88;5027492;28;20581;-69
2022/01/28 01:59:24;;;;;;;0.90;0.90;;;;;;;5.42;67.26;98908.63;5027940;28;20051;-70
2022/01/28 02:01:51;;;;;;;0.10;0.10;;;;;;;5.42;67.44;98904.25;5027594;28;20132;-71
2022/01/28 02:04:18;;;;;;;0.00;0.00;;;;;;;5.43;67.61;98892.81;5026492;28;20429;-72
2022/01/28 02:06:47;;;;;;;0.15;0.15;;;;;;;5.45;67.43;98892.69;5028532;28;20136;-79
2022/01/28 02:09:14;;;;;;;0.10;0.10;;;;;;;5.44;67.45;98878.78;5030269;28;20054;-76
2022/01/28 02:11:42;;;;;;;0.10;0.10;;;;;;;5.44;67.43;98870.06;5030380;28;20109;-80
2022/01/28 02:14:09;;;;;;;0.10;0.10;;;;;;;5.44;67.47;98876.16;5031373;28;20129;-77
2022/01/28 02:16:36;;;;;;;0.20;0.20;;;;;;;5.44;67.55;98868.31;5031516;28;20661;-71
2022/01/28 02:19:04;;;;;;;0.10;0.10;;;;;;;5.43;67.66;98858.75;5013459;28;20148;-78
2022/01/28 02:21:39;;;;;;;0.10;0.10;;;;;;;5.46;67.68;98853.31;5031985;28;20144;-79
2022/01/28 02:24:08;;;;;;;0.10;0.10;;;;;;;5.51;67.68;98845.97;5031087;28;20680;-77
2022/01/28 02:26:36;;;;;;;0.10;0.10;;;;;;;5.52;67.71;98860.69;5030944;28;20052;-79
2022/01/28 02:29:09;;;;;;;0.10;0.10;;;;;;;5.59;67.71;98852.41;5030295;28;20397;-79
2022/01/28 02:31:36;;;;;;;0.10;0.10;;;;;;;5.60;67.72;98854.91;5031575;28;20041;-81
2022/01/28 02:34:05;;;;;;;3.08;2.33;;;;;;;5.57;67.94;98836.81;5031173;28;20060;-81
2022/01/28 02:36:32;;;;;;;0.38;0.38;;;;;;;5.61;67.68;98847.88;5034138;28;20366;-81
2022/01/28 02:39:01;;;;;;;0.00;0.00;;;;;;;5.57;67.74;98838.59;5034788;28;20101;-70
2022/01/28 02:41:33;;;;;;;0.10;0.10;;;;;;;5.55;67.60;98847.38;5034052;28;20172;-73
2022/01/28 02:44:10;;;;;;;0.10;0.10;;;;;;;5.55;67.50;98846.56;5018732;28;20045;-78
2022/01/28 02:46:41;;;;;;;0.10;0.10;;;;;;;5.51;67.53;98845.97;5035767;28;20068;-79
2022/01/28 02:49:10;;;;;;;0.10;0.10;;;;;;;5.45;67.61;98835.91;5037763;28;20065;-80
2022/01/28 02:51:38;;;;;;;0.40;0.38;;;;;;;5.43;67.71;98827.34;5020447;28;20446;-74
2022/01/28 02:54:15;;;;;;;9.55;3.50;;;;;;;5.40;67.94;98840.66;5034267;28;20199;-69
2022/01/28 02:56:48;;;;;;;0.10;0.10;;;;;;;5.39;67.72;98820.69;5022718;28;20120;-69
2022/01/28 02:59:16;;;;;;;43.58;5.25;;;;;;;5.40;67.83;98816.25;5031153;28;20085;-70
2022/01/28 03:01:43;;;;;;;0.10;0.10;;;;;;;5.41;67.72;98831.03;5035206;28;20033;-73
2022/01/28 03:04:15;;;;;;;0.10;0.10;;;;;;;5.41;67.66;98821.41;5046766;28;20052;-72
2022/01/28 03:06:43;;;;;;;0.00;0.00;;;;;;;5.40;67.57;98821.50;5044617;28;20045;-73
2022/01/28 03:09:17;;;;;;;0.00;0.00;;;;;;;5.35;67.58;98832.34;5037022;28;20406;-71
2022/01/28 03:11:46;;;;;;;0.10;0.10;;;;;;;5.31;67.70;98812.53;5032683;28;20175;-73
2022/01/28 03:14:35;;;;;;;0.00;0.00;;;;;;;5.31;67.74;98817.78;5045093;28;20029;-70
2022/01/28 03:17:13;;;;;;;0.10;0.10;;;;;;;5.28;67.79;98812.78;5028066;28;20132;-74
2022/01/28 03:19:50;;;;;;;0.10;0.10;;;;;;;5.30;67.60;98811.72;5031562;28;20791;-71
2022/01/28 03:22:17;;;;;;;0.32;0.32;;;;;;;5.31;67.70;98794.22;5032593;28;20049;-69
2022/01/28 03:24:51;;;;;;;0.08;0.08;;;;;;;5.30;67.66;98810.88;5036527;28;20129;-68
2022/01/28 03:27:33;;;;;;;0.10;0.10;;;;;;;5.29;67.66;98783.84;5039406;28;20050;-71
2022/01/28 03:30:00;;;;;;;0.10;0.10;;;;;;;5.33;67.75;98805.41;5033036;28;20049;-68
2022/01/28 03:32:27;;;;;;;0.10;0.10;;;;;;;5.32;67.55;98801.13;5035926;28;20098;-70
2022/01/28 03:34:54;;;;;;;3.10;1.92;;;;;;;5.30;67.77;98790.78;5037940;28;20509;-70
2022/01/28 03:37:22;;;;;;;0.10;0.10;;;;;;;5.32;67.71;98804.56;5032312;28;20060;-70
2022/01/28 03:39:50;;;;;;;0.30;0.30;;;;;;;5.32;67.72;98812.44;5032163;28;20386;-70
2022/01/28 03:42:17;;;;;;;0.10;0.10;;;;;;;5.32;67.80;98794.09;5031945;28;20059;-67
2022/01/28 03:44:44;;;;;;;11.77;4.28;;;;;;;5.23;67.99;98804.44;5030338;28;20129;-68
2022/01/28 03:47:11;;;;;;;0.52;0.52;;;;;;;5.26;68.00;98802.44;5030243;28;20137;-71
2022/01/28 03:49:38;;;;;;;9.10;4.00;;;;;;;5.21;68.12;98816.81;5026974;28;20049;-68
2022/01/28 03:52:05;;;;;;;6.13;3.05;;;;;;;5.19;68.30;98806.44;5027826;28;20124;-69
2022/01/28 03:54:32;;;;;;;0.00;0.00;;;;;;;5.22;68.21;98794.91;5026098;28;20053;-68
2022/01/28 03:57:04;;;;;;;0.10;0.10;;;;;;;5.23;68.11;98813.13;5026658;28;20486;-69
2022/01/28 03:59:31;;;;;;;1.45;0.93;;;;;;;5.20;68.10;98829.03;5026252;28;20137;-68
2022/01/28 04:01:58;;;;;;;0.10;0.10;;;;;;;5.22;68.14;98826.31;5026615;28;20046;-71
2022/01/28 04:12:51;;;;;;;0.10;0.10;;;;;;;5.19;68.18;98816.09;4946142;29;20526;-70
2022/01/28 04:15:34;;;;;;;0.30;0.30;;;;;;;5.17;68.14;98826.66;4945760;29;20130;-69
2022/01/28 04:18:01;;;;;;;0.10;0.10;;;;;;;5.21;68.19;98819.41;4946096;29;20079;-69
2022/01/28 04:20:30;;;;;;;2.95;1.35;;;;;;;5.12;68.26;98823.53;4945668;29;20054;-70
2022/01/28 04:22:57;;;;;;;0.10;0.10;;;;;;;5.13;68.22;98836.53;4945482;29;20304;-67
2022/01/28 04:25:24;;;;;;;6.18;4.88;;;;;;;5.08;68.48;98822.09;4944769;28;20070;-67
2022/01/28 04:27:53;;;;;;;0.10;0.10;;;;;;;5.13;68.56;98835.66;4944125;29;20050;-67
2022/01/28 04:30:20;;;;;;;0.10;0.10;;;;;;;5.15;68.36;98839.03;4944271;28;20051;-67
2022/01/28 04:32:49;;;;;;;0.10;0.10;;;;;;;5.16;68.33;98841.50;4942123;28;20047;-67
2022/01/28 04:35:16;;;;;;;0.10;0.10;;;;;;;5.15;68.27;98850.31;4944198;29;20154;-67
2022/01/28 04:37:52;;;;;;;0.10;0.10;;;;;;;5.13;68.69;98846.13;4943610;29;20059;-66
2022/01/28 04:40:23;;;;;;;0.35;0.20;;;;;;;5.15;68.65;98850.31;4944034;28;20134;-67
2022/01/28 04:43:05;;;;;;;7.03;4.10;;;;;;;5.08;68.94;98829.94;4945999;28;20054;-66
2022/01/28 04:45:42;;;;;;;1.35;1.05;;;;;;;5.13;68.86;98854.84;5004130;28;20097;-70
2022/01/28 04:48:17;;;;;;;0.63;0.63;;;;;;;5.14;69.17;98848.63;5009185;28;20137;-66
2022/01/28 04:50:56;;;;;;;0.20;0.20;;;;;;;5.18;69.37;98851.88;5008459;28;20161;-68
2022/01/28 04:53:39;;;;;;;0.10;0.10;;;;;;;5.26;68.95;98846.09;5008560;28;20052;-67
2022/01/28 04:56:21;;;;;;;0.05;0.05;;;;;;;5.28;68.92;98855.50;5008921;28;20497;-69
2022/01/28 04:59:07;;;;;;;0.10;0.10;;;;;;;5.30;68.72;98853.59;5007589;28;20045;-65
2022/01/28 05:02:06;;;;;;;0.00;0.00;;;;;;;5.32;68.94;98861.34;5021755;28;20502;-70
2022/01/28 05:04:53;;;;;;;4.28;2.45;;;;;;;5.32;68.97;98840.41;5046308;28;20045;-67
2022/01/28 05:26:59;;;;;;;0.10;0.10;;;;;;;5.39;68.78;98887.94;4911321;29;20052;-70
2022/01/28 05:29:26;;;;;;;0.10;0.10;;;;;;;5.37;68.87;98867.09;4909993;29;20056;-73
2022/01/28 05:31:53;;;;;;;12.38;4.85;;;;;;;5.28;69.37;98873.81;4909122;29;20058;-76
2022/01/28 05:34:25;;;;;;;5.85;1.77;;;;;;;5.35;69.16;98855.91;4907572;29;20052;-73
2022/01/28 05:36:53;;;;;;;0.88;0.63;;;;;;;5.38;69.50;98881.84;4908474;29;20052;-68
2022/01/28 05:39:21;;;;;;;0.10;0.10;;;;;;;5.46;68.95;98900.44;4908594;29;20220;-71
2022/01/28 05:41:48;;;;;;;8.20;3.30;;;;;;;5.39;69.38;98888.75;4908829;29;20051;-70
2022/01/28 05:44:15;;;;;;;15.45;5.25;;;;;;;5.39;69.50;98904.47;4909566;29;20102;-73
2022/01/28 05:46:44;;;;;;;0.43;0.43;;;;;;;5.44;68.95;98907.59;4908240;29;20055;-70
2022/01/28 05:49:13;;;;;;;0.20;0.20;;;;;;;5.47;68.74;98901.28;4908626;29;20099;-72
2022/01/28 05:51:42;;;;;;;2.72;2.00;;;;;;;5.43;68.93;98912.94;4914452;29;20080;-80
2022/01/28 05:54:09;;;;;;;0.10;0.10;;;;;;;5.45;68.86;98908.41;4892929;29;20135;-72
2022/01/28 05:56:36;;;;;;;0.10;0.10;;;;;;;5.47;68.75;98911.75;4908040;29;20131;-77
2022/01/28 05:59:04;;;;;;;0.10;0.10;;;;;;;5.44;68.80;98912.81;4963105;28;20070;-68
2022/01/28 06:01:31;;;;;;;0.22;0.22;;;;;;;5.46;68.82;98912.72;5034343;28;20060;-71
2022/01/28 06:03:58;;;;;;;0.00;0.00;;;;;;;5.51;68.66;98921.03;5007662;28;20061;-72
2022/01/28 06:06:25;;;;;;;0.10;0.10;;;;;;;5.51;68.65;98923.66;5046948;28;20131;-73
2022/01/28 06:08:55;;;;;;;0.10;0.10;;;;;;;5.52;68.83;98920.94;5046596;28;20092;-72
2022/01/28 06:11:22;;;;;;;0.10;0.10;;;;;;;5.53;68.86;98911.31;5047530;28;20149;-69
2022/01/28 06:13:50;;;;;;;0.10;0.10;;;;;;;5.51;69.11;98931.53;5047522;28;20124;-74
2022/01/28 06:16:18;;;;;;;1.17;0.68;;;;;;;5.52;69.08;98941.06;5047013;28;20410;-68
2022/01/28 06:18:48;;;;;;;0.10;0.10;;;;;;;5.52;68.85;98918.31;5046922;28;20140;-68
2022/01/28 06:21:16;;;;;;;10.43;5.15;;;;;;;5.42;69.23;98924.34;5046268;28;20056;-77
2022/01/28 06:23:44;;;;;;;0.10;0.10;;;;;;;5.47;69.05;98928.28;5028500;28;20046;-70
2022/01/28 06:26:12;;;;;;;10.98;5.28;;;;;;;5.44;69.30;98932.91;5021856;28;20138;-68
2022/01/28 06:28:39;;;;;;;8.30;3.20;;;;;;;5.42;69.31;98942.66;5025490;28;20612;-65
2022/01/28 06:31:06;;;;;;;4.20;1.77;;;;;;;5.45;69.17;98945.91;5028085;28;20133;-77
2022/01/28 06:33:33;;;;;;;15.25;6.20;;;;;;;5.34;69.39;98957.16;5032848;28;20427;-69
2022/01/28 06:36:02;;;;;;;13.52;6.43;;;;;;;5.31;69.73;98953.91;5025160;28;20745;-66
2022/01/28 06:38:29;;;;;;;14.80;6.03;;;;;;;5.32;69.57;98950.34;5030299;28;20041;-71
2022/01/28 06:40:56;;;;;;;19.48;7.18;;;;;;;5.20;70.19;98959.09;5044511;28;20049;-72
2022/01/28 06:43:25;;;;;;;2.63;1.60;;;;;;;5.32;69.60;98974.75;5044450;28;20047;-73
2022/01/28 06:45:53;;;;;;;0.20;0.20;;;;;;;5.28;69.71;98978.53;5045778;28;20136;-72
2022/01/28 06:48:20;;;;;;;0.10;0.10;;;;;;;5.28;69.67;98975.09;5026401;28;20128;-70
2022/01/28 06:50:49;;;;;;;9.82;4.57;;;;;;;5.22;69.83;98979.00;5030324;28;20128;-77
2022/01/28 06:53:17;;;;;;;12.45;5.78;;;;;;;5.19;70.18;98991.47;5028155;28;20045;-69
2022/01/28 06:55:45;;;;;;;10.77;7.18;;;;;;;5.15;70.11;98983.81;5035839;28;20401;-74
2022/01/28 06:58:12;;;;;;;15.85;7.97;;;;;;;5.16;70.20;98997.72;5010163;28;20041;-75
2022/01/28 07:00:40;;;;;;;11.02;5.68;;;;;;;5.17;70.12;99008.09;5029385;28;20051;-75
2022/01/28 07:03:10;;;;;;;0.08;0.08;;;;;;;5.21;69.74;99031.44;5023471;28;20712;-69
2022/01/28 07:05:38;;;;;;;0.47;0.47;;;;;;;5.20;69.68;99021.91;5027798;28;20555;-72
2022/01/28 07:08:07;;;;;;;0.20;0.20;;;;;;;5.17;69.58;99031.66;5029552;28;20719;-76
2022/01/28 07:10:36;;;;;;;0.10;0.10;;;;;;;5.18;69.63;99040.34;5030980;28;20068;-72
2022/01/28 07:13:06;;;;;;;0.15;0.15;;;;;;;5.20;69.63;99048.91;5033070;28;20045;-69
2022/01/28 07:15:33;;;;;;;11.82;7.82;;;;;;;5.13;69.96;99040.66;5037962;28;20474;-70
2022/01/28 07:18:05;;;;;;;35.60;7.03;;;;;;;5.09;70.05;99060.13;5028649;28;20059;-67
2022/01/28 07:20:34;;;;;;;0.90;0.73;;;;;;;5.19;69.83;99046.44;5031771;28;20046;-68
2022/01/28 07:23:02;;;;;;;2.72;1.35;;;;;;;5.20;69.68;99048.09;5034800;28;20041;-70
2022/01/28 07:25:30;;;;;;;0.10;0.10;;;;;;;5.19;69.76;99055.09;5035439;28;20156;-72
2022/01/28 07:27:57;;;;;;;13.68;3.72;;;;;;;5.15;69.70;99053.66;5014407;28;20095;-76
2022/01/28 07:30:25;;;;;;;0.10;0.10;;;;;;;5.17;69.77;99076.16;5012350;28;20126;-73
2022/01/28 07:32:52;;;;;;;0.10;0.10;;;;;;;5.22;69.50;99067.13;5034777;28;20045;-74
2022/01/28 07:35:21;;;;;;;0.20;0.20;;;;;;;5.21;69.58;99089.03;5014094;28;20048;-72
2022/01/28 07:37:48;;;;;;;0.10;0.10;;;;;;;5.24;69.52;99092.28;5033551;28;20194;-70
2022/01/28 07:40:15;;;;;;;0.10;0.10;;;;;;;5.27;69.57;99088.59;5023462;28;20513;-77
2022/01/28 07:42:43;;;;;;;4.18;1.85;;;;;;;5.32;69.48;99082.09;5030093;28;20074;-70
2022/01/28 07:45:13;;;;;;;1.98;1.65;;;;;;;5.37;69.63;99087.03;5028609;28;20049;-72
2022/01/28 07:47:41;;;;;;;0.47;0.47;;;;;;;5.40;69.39;99078.94;5027420;28;20045;-71
2022/01/28 07:50:10;;;;;;;13.80;8.15;;;;;;;5.35;69.79;99097.59;5026103;28;20081;-69
2022/01/28 07:52:39;;;;;;;0.08;0.08;;;;;;;5.40;69.45;99110.34;5024689;28;20124;-69
2022/01/28 07:55:13;;;;;;;7.65;4.70;;;;;;;5.29;70.03;99118.13;5025150;28;20076;-68
2022/01/28 07:57:42;;;;;;;11.50;6.65;;;;;;;5.29;69.87;99133.84;5025458;28;20103;-71
2022/01/28 08:00:11;;;;;;;0.30;0.30;;;;;;;5.40;69.56;99146.19;5028513;28;20336;-70
2022/01/28 08:02:38;;;;;;;0.32;0.32;;;;;;;5.43;69.36;99153.84;5026935;28;20064;-69
2022/01/28 08:05:05;;;;;;;8.85;5.07;;;;;;;5.37;69.58;99170.81;5031877;28;20053;-70
2022/01/28 08:07:33;;;;;;;2.63;2.20;;;;;;;5.44;69.33;99165.97;5030110;28;20046;-73
2022/01/28 08:10:01;;;;;;;0.10;0.10;;;;;;;5.46;69.35;99170.19;5032567;28;20099;-70
2022/01/28 08:12:28;;;;;;;0.20;0.20;;;;;;;5.48;69.05;99188.41;5031545;28;20045;-70
2022/01/28 08:14:55;;;;;;;7.65;5.20;;;;;;;5.35;69.43;99164.84;5028886;28;20124;-70
2022/01/28 08:17:26;;;;;;;0.10;0.10;;;;;;;5.48;69.12;99196.28;5030500;28;20053;-72
2022/01/28 08:19:53;;;;;;;0.25;0.25;;;;;;;5.48;69.02;99185.78;5031966;28;20313;-78
2022/01/28 08:22:21;;;;;;;0.80;0.75;;;;;;;5.52;68.94;99182.84;5035623;28;20050;-74
2022/01/28 08:24:49;;;;;;;7.15;4.97;;;;;;;5.44;69.41;99200.00;5033995;28;20449;-71
2022/01/28 08:27:18;;;;;;;0.45;0.45;;;;;;;5.50;69.24;99200.44;5044437;28;20134;-73
2022/01/28 08:29:47;;;;;;;0.10;0.10;;;;;;;5.59;68.96;99219.09;5037934;28;20128;-75
2022/01/28 08:32:14;;;;;;;9.05;6.50;;;;;;;5.51;69.22;99228.31;5040389;28;20562;-76
2022/01/28 08:34:41;;;;;;;0.10;0.10;;;;;;;5.62;68.90;99237.22;5037699;28;20045;-72
2022/01/28 08:37:11;;;;;;;14.50;5.15;;;;;;;5.58;68.91;99239.19;5048693;28;20061;-73
2022/01/28 08:39:46;;;;;;;1.95;1.65;;;;;;;5.59;68.85;99245.31;5029003;28;20046;-73
2022/01/28 08:42:16;;;;;;;0.43;0.43;;;;;;;5.66;68.47;99257.03;5038275;28;20084;-78
2022/01/28 08:44:44;;;;;;;3.92;2.95;;;;;;;5.61;68.92;99259.97;5030965;28;20049;-73
2022/01/28 08:47:12;;;;;;;0.10;0.10;;;;;;;5.65;68.48;99258.78;5028372;28;20079;-77
2022/01/28 08:49:39;;;;;;;8.43;4.40;;;;;;;5.62;68.56;99266.88;5036606;28;20105;-78
2022/01/28 08:52:07;;;;;;;9.85;6.07;;;;;;;5.51;68.87;99265.00;5030504;28;20042;-74
2022/01/28 08:54:34;;;;;;;0.20;0.17;;;;;;;5.56;68.62;99264.66;5040109;28;20122;-80
2022/01/28 08:57:01;;;;;;;8.25;4.05;;;;;;;5.55;68.85;99292.66;5035245;28;20691;-75
2022/01/28 08:59:28;;;;;;;1.35;1.17;;;;;;;5.62;68.74;99297.47;5037964;28;20533;-80
2022/01/28 09:01:56;;;;;;;7.65;6.18;;;;;;;5.61;68.73;99290.56;5035755;28;20059;-82
2022/01/28 09:04:24;;;;;;;2.88;2.63;;;;;;;5.62;68.61;99318.41;5026694;28;20448;-70
2022/01/28 09:06:51;;;;;;;6.30;3.63;;;;;;;5.63;68.41;99307.00;5028224;28;20037;-71
2022/01/28 09:09:19;;;;;;;0.85;0.85;;;;;;;5.66;68.35;99333.00;5033650;28;20042;-73
2022/01/28 09:11:53;;;;;;;0.10;0.10;;;;;;;5.70;67.96;99334.47;5033765;28;20045;-71
2022/01/28 09:14:23;;;;;;;4.72;3.30;;;;;;;5.62;68.29;99344.63;5016399;28;20536;-74
2022/01/28 09:16:52;;;;;;;0.10;0.10;;;;;;;5.73;67.97;99350.00;5037969;28;20076;-75
2022/01/28 09:19:21;;;;;;;11.15;6.75;;;;;;;5.70;68.12;99358.06;5033189;28;20046;-70
2022/01/28 09:21:48;;;;;;;0.82;0.82;;;;;;;5.79;67.62;99360.06;5016213;28;20064;-70
2022/01/28 09:24:18;;;;;;;1.77;1.65;;;;;;;5.77;68.11;99368.97;5025812;28;20131;-70
2022/01/28 09:26:47;;;;;;;1.98;1.25;;;;;;;5.79;67.85;99388.03;5023713;28;20052;-70
2022/01/28 09:29:14;;;;;;;0.10;0.10;;;;;;;5.82;67.48;99370.34;5026846;28;20056;-70
2022/01/28 09:31:41;;;;;;;7.57;3.75;;;;;;;5.77;67.78;99382.91;5033277;28;20045;-72
2022/01/28 09:34:08;;;;;;;0.10;0.10;;;;;;;5.85;67.35;99387.63;4979284;28;20081;-74
2022/01/28 09:36:38;;;;;;;1.58;1.45;;;;;;;5.90;67.41;99401.28;5008534;28;20105;-74
2022/01/28 09:39:07;;;;;;;3.20;2.08;;;;;;;5.93;67.44;99412.38;5010531;28;20037;-80
2022/01/28 09:41:35;;;;;;;3.42;2.53;;;;;;;5.86;67.59;99407.66;5034479;28;20455;-74
2022/01/28 09:44:03;;;;;;;5.80;3.30;;;;;;;5.83;67.65;99413.09;5038674;28;20116;-69
2022/01/28 09:46:30;;;;;;;0.10;0.10;;;;;;;5.99;67.03;99428.69;5041943;28;20422;-77
2022/01/28 09:48:57;;;;;;;0.65;0.60;;;;;;;6.00;66.94;99423.34;5042249;28;20447;-72
2022/01/28 09:51:24;;;;;;;0.00;0.00;;;;;;;6.04;66.73;99434.47;5038481;28;20053;-70
2022/01/28 09:53:53;;;;;;;0.28;0.28;;;;;;;6.04;66.98;99440.53;5032141;28;20119;-72
2022/01/28 09:56:20;;;;;;;0.10;0.10;;;;;;;6.06;66.66;99437.81;5030832;28;20112;-71
2022/01/28 09:58:47;;;;;;;0.10;0.10;;;;;;;6.05;66.84;99450.09;5039966;28;20128;-73
2022/01/28 10:01:14;;;;;;;0.10;0.10;;;;;;;6.10;66.56;99444.53;5038168;28;20988;-70
2022/01/28 10:03:41;;;;;;;5.13;3.45;;;;;;;5.91;67.39;99453.59;5038222;28;20051;-71
2022/01/28 10:06:08;;;;;;;5.80;4.18;;;;;;;5.99;67.68;99452.28;5040985;28;20536;-70
2022/01/28 10:08:36;;;;;;;5.05;3.85;;;;;;;5.94;67.56;99455.16;5041184;28;20658;-73
2022/01/28 10:11:09;;;;;;;6.20;3.80;;;;;;;6.09;67.53;99454.19;5038144;28;20052;-71
2022/01/28 10:13:41;;;;;;;5.30;4.03;;;;;;;6.09;67.20;99464.66;5024369;28;20139;-67
2022/01/28 10:16:11;;;;;;;4.63;2.88;;;;;;;6.03;65.98;99458.97;5026740;28;20105;-68
2022/01/28 10:18:41;;;;;;;4.82;3.72;;;;;;;6.09;66.28;99471.69;5025935;28;20114;-68
2022/01/28 10:21:21;;;;;;;6.90;3.67;;;;;;;6.07;65.46;99479.66;5025123;28;20064;-71
2022/01/28 10:24:13;;;;;;;6.35;4.40;;;;;;;6.07;64.67;99481.47;5023891;28;20041;-68
2022/01/28 10:26:48;;;;;;;8.80;4.40;;;;;;;6.11;65.35;99494.25;5021901;28;20124;-76
2022/01/28 10:29:18;;;;;;;6.05;4.55;;;;;;;6.09;64.69;99482.19;5026134;28;20062;-71
2022/01/28 10:31:48;;;;;;;8.82;4.68;;;;;;;6.07;63.59;99482.28;5026235;28;20048;-67
2022/01/28 10:34:18;;;;;;;8.45;4.47;;;;;;;6.07;64.21;99505.03;5025391;28;20080;-73
2022/01/28 10:36:47;;;;;;;8.70;4.80;;;;;;;6.05;63.91;99515.63;5029393;28;20120;-70
2022/01/28 10:39:20;;;;;;;14.40;6.82;;;;;;;6.17;65.00;99513.13;5028345;28;20057;-70
2022/01/28 10:41:55;;;;;;;6.85;5.18;;;;;;;6.13;64.16;99517.75;5025044;28;20157;-67
2022/01/28 10:44:26;;;;;;;9.10;5.47;;;;;;;6.09;64.66;99526.75;5027005;28;20045;-70
2022/01/28 10:47:07;;;;;;;5.50;3.65;;;;;;;6.07;63.55;99523.41;5023849;28;20052;-70
2022/01/28 10:49:35;;;;;;;6.55;3.38;;;;;;;6.02;64.02;99549.06;4973054;28;20651;-69
2022/01/28 10:52:11;;;;;;;10.73;5.32;;;;;;;6.00;64.19;99550.97;5025611;28;20046;-71
2022/01/28 10:54:42;;;;;;;5.13;3.38;;;;;;;5.87;64.51;99559.56;5008088;28;20416;-69
2022/01/28 10:57:12;;;;;;;6.90;4.82;;;;;;;5.72;65.27;99578.88;5004367;28;20048;-71
2022/01/28 10:59:41;;;;;;;7.30;5.18;;;;;;;5.65;64.89;99578.41;5033619;28;20632;-68
2022/01/28 11:02:09;;;;;;;10.77;7.10;;;;;;;5.55;64.99;99578.16;5014529;28;20045;-67
2022/01/28 11:04:36;;;;;;;10.20;6.35;;;;;;;5.58;65.41;99594.63;5012572;28;20049;-67
2022/01/28 11:07:04;;;;;;;10.23;6.63;;;;;;;5.60;65.41;99587.50;5016227;28;20045;-69
2022/01/28 11:09:31;;;;;;;6.90;5.13;;;;;;;5.53;65.31;99598.38;5016289;28;20798;-71
2022/01/28 11:12:00;;;;;;;7.85;5.70;;;;;;;5.58;65.18;99592.00;5016746;28;20128;-74
2022/01/28 11:14:29;;;;;;;8.02;5.30;;;;;;;5.64;65.55;99615.22;5017561;28;20057;-69
2022/01/28 11:16:56;;;;;;;8.23;5.78;;;;;;;5.69;65.53;99619.22;5017439;28;20081;-75
2022/01/28 11:19:25;;;;;;;8.30;6.35;;;;;;;5.67;64.66;99615.88;5018949;28;20045;-72
2022/01/28 11:22:25;;;;;;;9.02;5.63;;;;;;;5.49;64.70;99624.84;5018672;28;20092;-69
2022/01/28 11:25:16;;;;;;;5.63;3.50;;;;;;;5.49;64.78;99620.47;5019998;28;20041;-71
2022/01/28 11:27:48;;;;;;;22.23;15.27;;;;;;;5.61;65.31;99633.72;5021800;28;20125;-73
2022/01/28 11:30:25;;;;;;;9.18;5.93;;;;;;;5.66;65.32;99642.16;5020230;28;20614;-72
2022/01/28 11:33:03;;;;;;;8.38;5.95;;;;;;;5.57;64.96;99629.63;5022617;28;20053;-71
2022/01/28 11:35:33;;;;;;;9.35;5.80;;;;;;;5.52;64.70;99633.34;5040202;28;20733;-76
2022/01/28 11:38:04;;;;;;;9.27;5.10;;;;;;;5.53;64.63;99636.84;5038104;28;20083;-69
2022/01/28 11:40:51;;;;;;;7.70;5.65;;;;;;;5.64;64.02;99650.09;5038091;28;20132;-73
2022/01/28 11:43:20;;;;;;;9.07;6.47;;;;;;;5.76;64.20;99645.88;5037817;28;20056;-73
2022/01/28 11:45:48;;;;;;;8.27;6.07;;;;;;;5.85;64.00;99645.31;5037425;28;20646;-78
2022/01/28 11:48:16;;;;;;;8.23;5.50;;;;;;;5.89;63.67;99654.66;5039338;28;20055;-72
2022/01/28 11:50:52;;;;;;;9.75;6.43;;;;;;;5.98;64.08;99649.78;5020418;28;20064;-71
2022/01/28 11:53:24;;;;;;;13.95;5.43;;;;;;;5.83;62.89;99668.13;5040093;28;20053;-76
2022/01/28 11:56:03;;;;;;;7.10;4.68;;;;;;;5.92;62.89;99664.09;5025032;28;20136;-76
2022/01/28 11:58:52;;;;;;;10.05;4.88;;;;;;;5.99;63.06;99672.47;5035949;28;20045;-76
2022/01/28 12:01:25;;;;;;;9.27;5.07;;;;;;;6.01;62.77;99681.06;5022139;28;20084;-71
2022/01/28 12:04:13;;;;;;;7.97;5.45;;;;;;;5.88;62.13;99686.22;5024882;28;20113;-73
2022/01/28 12:06:40;;;;;;;7.00;5.32;;;;;;;5.86;62.22;99686.28;5028210;28;20124;-72
2022/01/28 12:09:08;;;;;;;7.85;5.15;;;;;;;5.62;63.34;99707.00;5030189;28;20041;-73
2022/01/28 12:11:44;;;;;;;8.30;5.22;;;;;;;5.48;64.04;99702.59;5038201;28;20041;-76
2022/01/28 12:14:13;;;;;;;11.43;6.40;;;;;;;5.39;64.73;99713.63;5013920;28;20041;-72
2022/01/28 12:16:46;;;;;;;6.03;3.65;;;;;;;5.31;64.74;99719.31;5033809;28;20037;-84
2022/01/28 12:19:18;;;;;;;12.50;9.18;;;;;;;5.38;65.15;99725.00;5031528;28;20037;-78
2022/01/28 12:22:04;;;;;;;11.13;7.40;;;;;;;5.54;65.38;99725.78;5036382;28;20052;-75
2022/01/28 12:24:34;;;;;;;14.88;7.32;;;;;;;5.62;64.79;99732.34;5034352;28;20053;-79
2022/01/28 12:27:05;;;;;;;16.05;8.82;;;;;;;5.62;64.66;99732.34;5034771;28;20714;-80
2022/01/28 12:29:36;;;;;;;12.93;7.70;;;;;;;5.64;64.58;99731.31;5044525;28;20467;-72
2022/01/28 12:32:08;;;;;;;11.63;7.53;;;;;;;5.66;63.71;99739.94;5016424;28;20124;-71
2022/01/28 12:34:35;;;;;;;8.07;5.22;;;;;;;5.57;63.00;99740.50;5034653;28;20116;-75
2022/01/28 12:37:03;;;;;;;10.57;7.03;;;;;;;5.67;62.87;99751.25;5034708;28;20474;-76
2022/01/28 12:39:36;;;;;;;10.93;6.05;;;;;;;5.68;62.52;99742.47;5036638;28;20049;-72
2022/01/28 12:42:10;;;;;;;5.70;3.70;;;;;;;5.74;62.29;99749.94;5037223;28;20041;-70
2022/01/28 12:44:38;;;;;;;10.13;5.35;;;;;;;5.82;61.26;99759.97;5053083;28;20075;-79
2022/01/28 12:47:09;;;;;;;11.57;6.50;;;;;;;5.81;59.62;99747.78;5056976;28;20045;-71